sensor_id;sensor_type;location;lat;lon;timestamp;P1;durP1;ratioP1;P2;durP2;ratioP2
76176;SDS011;64938;47.696;8.066;2023-02-05T00:01:53;9.27;;;4.03;;
76176;SDS011;64938;47.696;8.066;2023-02-05T00:04:19;10.40;;;3.80;;
76176;SDS011;64938;47.696;8.066;2023-02-05T00:06:45;11.07;;;3.70;;
76176;SDS011;64938;47.696;8.066;2023-02-05T00:09:11;11.03;;;4.40;;
76176;SDS011;64938;47.696;8.066;2023-02-05T00:11:36;8.90;;;3.30;;
76176;SDS011;64938;47.696;8.066;2023-02-05T00:14:02;5.17;;;3.70;;
76176;SDS011;64938;47.696;8.066;2023-02-05T00:16:28;10.87;;;3.33;;
76176;SDS011;64938;47.696;8.066;2023-02-05T00:18:55;9.40;;;4.60;;
76176;SDS011;64938;47.696;8.066;2023-02-05T00:21:21;12.07;;;4.37;;
76176;SDS011;64938;47.696;8.066;2023-02-05T00:23:47;7.47;;;3.90;;
76176;SDS011;64938;47.696;8.066;2023-02-05T00:26:14;11.97;;;3.70;;
76176;SDS011;64938;47.696;8.066;2023-02-05T00:28:40;9.53;;;3.90;;
76176;SDS011;64938;47.696;8.066;2023-02-05T00:31:12;8.37;;;3.80;;
76176;SDS011;64938;47.696;8.066;2023-02-05T00:33:40;8.20;;;3.43;;
76176;SDS011;64938;47.696;8.066;2023-02-05T00:36:06;9.80;;;3.60;;
76176;SDS011;64938;47.696;8.066;2023-02-05T00:38:33;9.03;;;4.13;;
76176;SDS011;64938;47.696;8.066;2023-02-05T00:41:00;6.90;;;3.77;;
76176;SDS011;64938;47.696;8.066;2023-02-05T00:43:26;6.70;;;3.43;;
76176;SDS011;64938;47.696;8.066;2023-02-05T00:45:52;8.20;;;3.20;;
76176;SDS011;64938;47.696;8.066;2023-02-05T00:48:18;7.67;;;3.77;;
76176;SDS011;64938;47.696;8.066;2023-02-05T00:50:44;5.87;;;2.97;;
76176;SDS011;64938;47.696;8.066;2023-02-05T00:53:09;5.67;;;3.40;;
76176;SDS011;64938;47.696;8.066;2023-02-05T00:55:35;7.90;;;3.80;;
76176;SDS011;64938;47.696;8.066;2023-02-05T00:58:00;6.73;;;3.17;;
76176;SDS011;64938;47.696;8.066;2023-02-05T01:00:26;8.63;;;3.60;;
76176;SDS011;64938;47.696;8.066;2023-02-05T01:02:53;6.47;;;3.40;;
76176;SDS011;64938;47.696;8.066;2023-02-05T01:05:19;6.27;;;3.47;;
76176;SDS011;64938;47.696;8.066;2023-02-05T01:07:44;6.93;;;3.67;;
76176;SDS011;64938;47.696;8.066;2023-02-05T01:10:10;6.23;;;3.67;;
76176;SDS011;64938;47.696;8.066;2023-02-05T01:12:35;4.13;;;3.33;;
76176;SDS011;64938;47.696;8.066;2023-02-05T01:15:02;4.70;;;3.00;;
76176;SDS011;64938;47.696;8.066;2023-02-05T01:17:28;8.40;;;3.40;;
76176;SDS011;64938;47.696;8.066;2023-02-05T01:19:54;8.50;;;3.87;;
76176;SDS011;64938;47.696;8.066;2023-02-05T01:22:20;7.40;;;3.63;;
76176;SDS011;64938;47.696;8.066;2023-02-05T01:24:45;11.20;;;4.60;;
76176;SDS011;64938;47.696;8.066;2023-02-05T01:27:11;6.20;;;3.50;;
76176;SDS011;64938;47.696;8.066;2023-02-05T01:29:36;9.73;;;3.53;;
76176;SDS011;64938;47.696;8.066;2023-02-05T01:32:02;8.80;;;3.70;;
76176;SDS011;64938;47.696;8.066;2023-02-05T01:34:28;8.80;;;4.27;;
76176;SDS011;64938;47.696;8.066;2023-02-05T01:36:53;8.77;;;4.00;;
76176;SDS011;64938;47.696;8.066;2023-02-05T01:39:19;14.60;;;5.00;;
76176;SDS011;64938;47.696;8.066;2023-02-05T01:41:44;6.53;;;3.77;;
76176;SDS011;64938;47.696;8.066;2023-02-05T01:44:15;6.47;;;4.03;;
76176;SDS011;64938;47.696;8.066;2023-02-05T01:46:49;7.00;;;3.50;;
76176;SDS011;64938;47.696;8.066;2023-02-05T01:49:28;9.37;;;3.73;;
76176;SDS011;64938;47.696;8.066;2023-02-05T01:51:57;7.00;;;3.97;;
76176;SDS011;64938;47.696;8.066;2023-02-05T01:54:25;11.20;;;4.27;;
76176;SDS011;64938;47.696;8.066;2023-02-05T01:56:52;6.53;;;3.60;;
76176;SDS011;64938;47.696;8.066;2023-02-05T01:59:21;9.80;;;4.57;;
76176;SDS011;64938;47.696;8.066;2023-02-05T02:01:48;9.07;;;3.80;;
76176;SDS011;64938;47.696;8.066;2023-02-05T02:04:17;8.57;;;4.10;;
76176;SDS011;64938;47.696;8.066;2023-02-05T02:07:05;7.93;;;3.60;;
76176;SDS011;64938;47.696;8.066;2023-02-05T02:09:31;8.30;;;3.70;;
76176;SDS011;64938;47.696;8.066;2023-02-05T02:11:58;10.27;;;3.90;;
76176;SDS011;64938;47.696;8.066;2023-02-05T02:14:23;6.20;;;2.80;;
76176;SDS011;64938;47.696;8.066;2023-02-05T02:16:51;5.63;;;3.43;;
76176;SDS011;64938;47.696;8.066;2023-02-05T02:19:20;7.77;;;3.63;;
76176;SDS011;64938;47.696;8.066;2023-02-05T02:36:36;8.00;;;4.40;;
76176;SDS011;64938;47.696;8.066;2023-02-05T02:39:07;10.87;;;4.63;;
76176;SDS011;64938;47.696;8.066;2023-02-05T02:41:50;7.87;;;3.37;;
76176;SDS011;64938;47.696;8.066;2023-02-05T02:44:18;10.23;;;3.67;;
76176;SDS011;64938;47.696;8.066;2023-02-05T02:47:09;6.27;;;3.13;;
76176;SDS011;64938;47.696;8.066;2023-02-05T02:49:40;9.47;;;3.77;;
76176;SDS011;64938;47.696;8.066;2023-02-05T02:52:10;9.97;;;3.83;;
76176;SDS011;64938;47.696;8.066;2023-02-05T02:54:38;9.40;;;3.20;;
76176;SDS011;64938;47.696;8.066;2023-02-05T02:57:05;9.33;;;3.17;;
76176;SDS011;64938;47.696;8.066;2023-02-05T02:59:32;11.20;;;3.53;;
76176;SDS011;64938;47.696;8.066;2023-02-05T03:02:01;9.93;;;3.40;;
76176;SDS011;64938;47.696;8.066;2023-02-05T03:04:41;4.93;;;3.10;;
76176;SDS011;64938;47.696;8.066;2023-02-05T03:07:16;6.03;;;2.70;;
76176;SDS011;64938;47.696;8.066;2023-02-05T03:09:48;7.00;;;3.50;;
76176;SDS011;64938;47.696;8.066;2023-02-05T03:12:17;12.37;;;4.10;;
76176;SDS011;64938;47.696;8.066;2023-02-05T03:14:43;9.50;;;3.37;;
76176;SDS011;64938;47.696;8.066;2023-02-05T03:17:09;7.17;;;3.37;;
76176;SDS011;64938;47.696;8.066;2023-02-05T03:19:34;7.50;;;3.00;;
76176;SDS011;64938;47.696;8.066;2023-02-05T03:22:02;14.30;;;4.27;;
76176;SDS011;64938;47.696;8.066;2023-02-05T03:24:29;7.37;;;3.07;;
76176;SDS011;64938;47.696;8.066;2023-02-05T03:26:56;11.63;;;3.27;;
76176;SDS011;64938;47.696;8.066;2023-02-05T03:29:28;7.27;;;3.53;;
76176;SDS011;64938;47.696;8.066;2023-02-05T03:31:59;8.37;;;3.43;;
76176;SDS011;64938;47.696;8.066;2023-02-05T03:40:11;7.63;;;3.73;;
76176;SDS011;64938;47.696;8.066;2023-02-05T03:45:17;7.43;;;3.40;;
76176;SDS011;64938;47.696;8.066;2023-02-05T03:55:40;6.93;;;3.23;;
76176;SDS011;64938;47.696;8.066;2023-02-05T04:01:09;8.17;;;4.40;;
76176;SDS011;64938;47.696;8.066;2023-02-05T04:03:35;7.87;;;4.10;;
76176;SDS011;64938;47.696;8.066;2023-02-05T04:06:00;8.53;;;3.70;;
76176;SDS011;64938;47.696;8.066;2023-02-05T04:08:26;11.33;;;3.70;;
76176;SDS011;64938;47.696;8.066;2023-02-05T04:10:52;7.43;;;3.50;;
76176;SDS011;64938;47.696;8.066;2023-02-05T04:13:17;10.70;;;3.70;;
76176;SDS011;64938;47.696;8.066;2023-02-05T04:15:43;7.67;;;3.87;;
76176;SDS011;64938;47.696;8.066;2023-02-05T04:18:08;6.77;;;3.63;;
76176;SDS011;64938;47.696;8.066;2023-02-05T04:20:34;10.77;;;4.20;;
76176;SDS011;64938;47.696;8.066;2023-02-05T04:23:00;8.53;;;3.50;;
76176;SDS011;64938;47.696;8.066;2023-02-05T04:25:27;10.73;;;4.20;;
76176;SDS011;64938;47.696;8.066;2023-02-05T04:27:52;7.90;;;4.03;;
76176;SDS011;64938;47.696;8.066;2023-02-05T04:30:18;8.97;;;3.93;;
76176;SDS011;64938;47.696;8.066;2023-02-05T04:32:44;8.97;;;4.00;;
76176;SDS011;64938;47.696;8.066;2023-02-05T04:35:09;10.23;;;4.50;;
76176;SDS011;64938;47.696;8.066;2023-02-05T04:37:35;6.33;;;4.20;;
76176;SDS011;64938;47.696;8.066;2023-02-05T04:40:00;13.23;;;4.80;;
76176;SDS011;64938;47.696;8.066;2023-02-05T04:42:26;12.30;;;5.67;;
76176;SDS011;64938;47.696;8.066;2023-02-05T04:44:52;9.40;;;4.90;;
76176;SDS011;64938;47.696;8.066;2023-02-05T04:47:18;10.40;;;5.47;;
76176;SDS011;64938;47.696;8.066;2023-02-05T04:49:44;11.77;;;5.50;;
76176;SDS011;64938;47.696;8.066;2023-02-05T04:52:10;8.23;;;4.60;;
76176;SDS011;64938;47.696;8.066;2023-02-05T04:54:36;8.10;;;4.60;;
76176;SDS011;64938;47.696;8.066;2023-02-05T04:57:02;12.30;;;4.27;;
76176;SDS011;64938;47.696;8.066;2023-02-05T04:59:27;7.80;;;4.27;;
76176;SDS011;64938;47.696;8.066;2023-02-05T05:01:54;11.23;;;4.57;;
76176;SDS011;64938;47.696;8.066;2023-02-05T05:04:20;11.03;;;3.97;;
76176;SDS011;64938;47.696;8.066;2023-02-05T05:06:45;10.23;;;4.13;;
76176;SDS011;64938;47.696;8.066;2023-02-05T05:09:11;9.03;;;5.23;;
76176;SDS011;64938;47.696;8.066;2023-02-05T05:11:36;7.93;;;4.83;;
76176;SDS011;64938;47.696;8.066;2023-02-05T05:14:03;6.40;;;3.70;;
76176;SDS011;64938;47.696;8.066;2023-02-05T05:16:29;8.20;;;4.83;;
76176;SDS011;64938;47.696;8.066;2023-02-05T05:18:54;14.13;;;4.73;;
76176;SDS011;64938;47.696;8.066;2023-02-05T05:21:20;7.73;;;4.10;;
76176;SDS011;64938;47.696;8.066;2023-02-05T05:23:45;7.70;;;4.10;;
76176;SDS011;64938;47.696;8.066;2023-02-05T05:26:11;12.27;;;4.87;;
76176;SDS011;64938;47.696;8.066;2023-02-05T05:28:37;11.63;;;4.67;;
76176;SDS011;64938;47.696;8.066;2023-02-05T05:31:06;5.97;;;4.10;;
76176;SDS011;64938;47.696;8.066;2023-02-05T05:33:37;11.07;;;4.83;;
76176;SDS011;64938;47.696;8.066;2023-02-05T05:36:03;8.03;;;4.93;;
76176;SDS011;64938;47.696;8.066;2023-02-05T05:38:29;9.00;;;4.43;;
76176;SDS011;64938;47.696;8.066;2023-02-05T05:40:55;8.70;;;4.87;;
76176;SDS011;64938;47.696;8.066;2023-02-05T05:43:39;7.97;;;3.80;;
76176;SDS011;64938;47.696;8.066;2023-02-05T05:46:11;13.20;;;4.30;;
76176;SDS011;64938;47.696;8.066;2023-02-05T05:48:38;5.80;;;4.03;;
76176;SDS011;64938;47.696;8.066;2023-02-05T05:51:04;6.10;;;4.20;;
76176;SDS011;64938;47.696;8.066;2023-02-05T05:53:31;8.23;;;4.27;;
76176;SDS011;64938;47.696;8.066;2023-02-05T05:56:42;10.53;;;4.30;;
76176;SDS011;64938;47.696;8.066;2023-02-05T05:59:10;9.23;;;4.90;;
76176;SDS011;64938;47.696;8.066;2023-02-05T06:01:36;9.27;;;4.83;;
76176;SDS011;64938;47.696;8.066;2023-02-05T06:04:01;14.40;;;4.93;;
76176;SDS011;64938;47.696;8.066;2023-02-05T06:06:27;9.63;;;4.17;;
76176;SDS011;64938;47.696;8.066;2023-02-05T06:08:52;9.73;;;5.17;;
76176;SDS011;64938;47.696;8.066;2023-02-05T06:11:18;9.53;;;4.43;;
76176;SDS011;64938;47.696;8.066;2023-02-05T06:13:46;7.70;;;4.43;;
76176;SDS011;64938;47.696;8.066;2023-02-05T06:16:12;10.00;;;3.87;;
76176;SDS011;64938;47.696;8.066;2023-02-05T06:18:38;8.40;;;3.87;;
76176;SDS011;64938;47.696;8.066;2023-02-05T06:21:03;8.47;;;4.00;;
76176;SDS011;64938;47.696;8.066;2023-02-05T06:23:30;17.73;;;5.67;;
76176;SDS011;64938;47.696;8.066;2023-02-05T06:25:56;12.80;;;5.13;;
76176;SDS011;64938;47.696;8.066;2023-02-05T06:28:22;10.93;;;4.50;;
76176;SDS011;64938;47.696;8.066;2023-02-05T06:30:48;11.00;;;4.30;;
76176;SDS011;64938;47.696;8.066;2023-02-05T06:33:14;17.73;;;5.33;;
76176;SDS011;64938;47.696;8.066;2023-02-05T06:35:39;13.73;;;4.83;;
76176;SDS011;64938;47.696;8.066;2023-02-05T06:38:05;12.30;;;4.87;;
76176;SDS011;64938;47.696;8.066;2023-02-05T06:40:31;9.80;;;6.00;;
76176;SDS011;64938;47.696;8.066;2023-02-05T06:42:56;11.17;;;5.07;;
76176;SDS011;64938;47.696;8.066;2023-02-05T06:45:22;13.90;;;5.50;;
76176;SDS011;64938;47.696;8.066;2023-02-05T06:47:48;13.73;;;5.60;;
76176;SDS011;64938;47.696;8.066;2023-02-05T06:50:16;11.40;;;5.87;;
76176;SDS011;64938;47.696;8.066;2023-02-05T06:52:42;15.50;;;5.73;;
76176;SDS011;64938;47.696;8.066;2023-02-05T06:55:08;13.53;;;6.60;;
76176;SDS011;64938;47.696;8.066;2023-02-05T06:57:37;12.47;;;6.47;;
76176;SDS011;64938;47.696;8.066;2023-02-05T07:00:03;8.87;;;4.77;;
76176;SDS011;64938;47.696;8.066;2023-02-05T07:02:30;9.37;;;4.70;;
76176;SDS011;64938;47.696;8.066;2023-02-05T07:04:56;10.27;;;5.20;;
76176;SDS011;64938;47.696;8.066;2023-02-05T07:07:22;9.00;;;3.77;;
76176;SDS011;64938;47.696;8.066;2023-02-05T07:09:47;8.33;;;4.37;;
76176;SDS011;64938;47.696;8.066;2023-02-05T07:12:15;7.00;;;4.67;;
76176;SDS011;64938;47.696;8.066;2023-02-05T07:14:40;13.50;;;5.17;;
76176;SDS011;64938;47.696;8.066;2023-02-05T07:17:07;8.00;;;3.60;;
76176;SDS011;64938;47.696;8.066;2023-02-05T07:19:33;9.20;;;3.30;;
76176;SDS011;64938;47.696;8.066;2023-02-05T07:22:00;7.93;;;3.80;;
76176;SDS011;64938;47.696;8.066;2023-02-05T07:24:26;9.17;;;4.57;;
76176;SDS011;64938;47.696;8.066;2023-02-05T07:26:51;13.00;;;7.00;;
76176;SDS011;64938;47.696;8.066;2023-02-05T07:29:17;13.27;;;4.73;;
76176;SDS011;64938;47.696;8.066;2023-02-05T07:31:43;11.10;;;5.40;;
76176;SDS011;64938;47.696;8.066;2023-02-05T07:34:08;11.37;;;5.63;;
76176;SDS011;64938;47.696;8.066;2023-02-05T07:36:34;14.23;;;5.43;;
76176;SDS011;64938;47.696;8.066;2023-02-05T07:38:59;8.43;;;4.30;;
76176;SDS011;64938;47.696;8.066;2023-02-05T07:41:25;10.80;;;4.50;;
76176;SDS011;64938;47.696;8.066;2023-02-05T07:43:51;11.77;;;4.93;;
76176;SDS011;64938;47.696;8.066;2023-02-05T07:46:18;9.50;;;4.00;;
76176;SDS011;64938;47.696;8.066;2023-02-05T07:48:45;10.17;;;4.20;;
76176;SDS011;64938;47.696;8.066;2023-02-05T07:51:18;9.20;;;4.37;;
76176;SDS011;64938;47.696;8.066;2023-02-05T07:53:48;6.53;;;3.80;;
76176;SDS011;64938;47.696;8.066;2023-02-05T07:56:14;7.83;;;3.27;;
76176;SDS011;64938;47.696;8.066;2023-02-05T07:58:40;8.50;;;4.40;;
76176;SDS011;64938;47.696;8.066;2023-02-05T08:01:06;7.67;;;4.30;;
76176;SDS011;64938;47.696;8.066;2023-02-05T08:03:32;4.97;;;3.80;;
76176;SDS011;64938;47.696;8.066;2023-02-05T08:05:58;4.47;;;2.97;;
76176;SDS011;64938;47.696;8.066;2023-02-05T08:08:28;8.70;;;4.20;;
76176;SDS011;64938;47.696;8.066;2023-02-05T08:10:55;7.00;;;3.40;;
76176;SDS011;64938;47.696;8.066;2023-02-05T08:13:28;6.13;;;4.10;;
76176;SDS011;64938;47.696;8.066;2023-02-05T08:15:54;7.40;;;3.77;;
76176;SDS011;64938;47.696;8.066;2023-02-05T08:18:19;9.20;;;3.80;;
76176;SDS011;64938;47.696;8.066;2023-02-05T08:20:45;5.90;;;3.60;;
76176;SDS011;64938;47.696;8.066;2023-02-05T08:23:11;5.33;;;3.50;;
76176;SDS011;64938;47.696;8.066;2023-02-05T08:25:37;11.23;;;4.60;;
76176;SDS011;64938;47.696;8.066;2023-02-05T08:28:03;7.93;;;5.37;;
76176;SDS011;64938;47.696;8.066;2023-02-05T08:30:29;6.50;;;3.47;;
76176;SDS011;64938;47.696;8.066;2023-02-05T08:32:54;5.60;;;3.57;;
76176;SDS011;64938;47.696;8.066;2023-02-05T08:35:20;4.30;;;3.30;;
76176;SDS011;64938;47.696;8.066;2023-02-05T08:37:46;7.97;;;3.80;;
76176;SDS011;64938;47.696;8.066;2023-02-05T08:40:11;7.47;;;3.80;;
76176;SDS011;64938;47.696;8.066;2023-02-05T08:42:37;6.30;;;3.60;;
76176;SDS011;64938;47.696;8.066;2023-02-05T08:45:03;7.37;;;3.70;;
76176;SDS011;64938;47.696;8.066;2023-02-05T08:47:33;6.70;;;4.30;;
76176;SDS011;64938;47.696;8.066;2023-02-05T08:50:04;7.53;;;4.23;;
76176;SDS011;64938;47.696;8.066;2023-02-05T08:52:30;6.07;;;3.80;;
76176;SDS011;64938;47.696;8.066;2023-02-05T08:54:55;6.37;;;3.90;;
76176;SDS011;64938;47.696;8.066;2023-02-05T08:57:21;8.43;;;3.60;;
76176;SDS011;64938;47.696;8.066;2023-02-05T08:59:51;6.73;;;3.60;;
76176;SDS011;64938;47.696;8.066;2023-02-05T09:02:17;7.20;;;4.00;;
76176;SDS011;64938;47.696;8.066;2023-02-05T09:04:42;7.33;;;4.10;;
76176;SDS011;64938;47.696;8.066;2023-02-05T09:07:08;12.83;;;4.30;;
76176;SDS011;64938;47.696;8.066;2023-02-05T09:09:37;9.90;;;4.20;;
76176;SDS011;64938;47.696;8.066;2023-02-05T09:12:03;10.47;;;4.40;;
76176;SDS011;64938;47.696;8.066;2023-02-05T09:14:29;6.03;;;3.93;;
76176;SDS011;64938;47.696;8.066;2023-02-05T09:17:02;9.87;;;4.37;;
76176;SDS011;64938;47.696;8.066;2023-02-05T09:19:28;7.17;;;3.60;;
76176;SDS011;64938;47.696;8.066;2023-02-05T09:21:57;7.70;;;4.20;;
76176;SDS011;64938;47.696;8.066;2023-02-05T09:24:22;8.10;;;3.83;;
76176;SDS011;64938;47.696;8.066;2023-02-05T09:26:48;7.43;;;3.90;;
76176;SDS011;64938;47.696;8.066;2023-02-05T09:29:13;8.93;;;4.57;;
76176;SDS011;64938;47.696;8.066;2023-02-05T09:31:39;7.17;;;4.57;;
76176;SDS011;64938;47.696;8.066;2023-02-05T09:34:05;7.20;;;4.13;;
76176;SDS011;64938;47.696;8.066;2023-02-05T09:36:34;7.03;;;5.07;;
76176;SDS011;64938;47.696;8.066;2023-02-05T09:38:59;8.87;;;6.70;;
76176;SDS011;64938;47.696;8.066;2023-02-05T09:47:03;11.03;;;5.27;;
76176;SDS011;64938;47.696;8.066;2023-02-05T09:53:04;14.90;;;7.50;;
76176;SDS011;64938;47.696;8.066;2023-02-05T09:55:35;8.23;;;6.40;;
76176;SDS011;64938;47.696;8.066;2023-02-05T09:58:07;8.93;;;5.70;;
76176;SDS011;64938;47.696;8.066;2023-02-05T10:00:53;8.77;;;4.73;;
76176;SDS011;64938;47.696;8.066;2023-02-05T10:03:24;9.03;;;5.47;;
76176;SDS011;64938;47.696;8.066;2023-02-05T10:09:00;6.23;;;4.30;;
76176;SDS011;64938;47.696;8.066;2023-02-05T10:11:58;9.67;;;4.63;;
76176;SDS011;64938;47.696;8.066;2023-02-05T10:28:13;6.03;;;3.80;;
76176;SDS011;64938;47.696;8.066;2023-02-05T10:33:43;8.70;;;3.97;;
76176;SDS011;64938;47.696;8.066;2023-02-05T10:36:12;9.60;;;4.23;;
76176;SDS011;64938;47.696;8.066;2023-02-05T10:38:40;7.47;;;4.30;;
76176;SDS011;64938;47.696;8.066;2023-02-05T10:43:52;7.73;;;4.30;;
76176;SDS011;64938;47.696;8.066;2023-02-05T10:46:25;7.00;;;4.00;;
76176;SDS011;64938;47.696;8.066;2023-02-05T10:49:00;7.13;;;4.00;;
76176;SDS011;64938;47.696;8.066;2023-02-05T10:51:32;7.03;;;3.90;;
76176;SDS011;64938;47.696;8.066;2023-02-05T10:54:03;8.83;;;4.40;;
76176;SDS011;64938;47.696;8.066;2023-02-05T10:56:30;10.47;;;4.80;;
76176;SDS011;64938;47.696;8.066;2023-02-05T10:58:59;10.20;;;4.60;;
76176;SDS011;64938;47.696;8.066;2023-02-05T11:01:31;8.97;;;5.30;;
76176;SDS011;64938;47.696;8.066;2023-02-05T11:04:05;9.93;;;4.73;;
76176;SDS011;64938;47.696;8.066;2023-02-05T11:06:37;7.50;;;4.83;;
76176;SDS011;64938;47.696;8.066;2023-02-05T11:11:49;8.23;;;4.63;;
76176;SDS011;64938;47.696;8.066;2023-02-05T11:14:20;9.57;;;4.73;;
76176;SDS011;64938;47.696;8.066;2023-02-05T11:16:47;10.27;;;5.13;;
76176;SDS011;64938;47.696;8.066;2023-02-05T11:19:19;7.23;;;4.50;;
76176;SDS011;64938;47.696;8.066;2023-02-05T11:24:30;7.67;;;4.70;;
76176;SDS011;64938;47.696;8.066;2023-02-05T11:29:49;7.80;;;5.73;;
76176;SDS011;64938;47.696;8.066;2023-02-05T11:32:19;7.97;;;5.07;;
76176;SDS011;64938;47.696;8.066;2023-02-05T11:35:06;7.47;;;4.60;;
76176;SDS011;64938;47.696;8.066;2023-02-05T11:38:05;9.03;;;4.80;;
76176;SDS011;64938;47.696;8.066;2023-02-05T11:40:33;9.83;;;4.47;;
76176;SDS011;64938;47.696;8.066;2023-02-05T11:45:33;6.43;;;3.90;;
76176;SDS011;64938;47.696;8.066;2023-02-05T11:48:04;6.10;;;4.17;;
76176;SDS011;64938;47.696;8.066;2023-02-05T11:50:31;5.10;;;3.93;;
76176;SDS011;64938;47.696;8.066;2023-02-05T11:53:13;6.17;;;3.77;;
76176;SDS011;64938;47.696;8.066;2023-02-05T11:55:40;4.30;;;3.90;;
76176;SDS011;64938;47.696;8.066;2023-02-05T11:58:17;7.13;;;3.87;;
76176;SDS011;64938;47.696;8.066;2023-02-05T12:00:56;6.03;;;3.70;;
76176;SDS011;64938;47.696;8.066;2023-02-05T12:03:24;4.30;;;3.90;;
76176;SDS011;64938;47.696;8.066;2023-02-05T12:06:17;3.87;;;3.07;;
76176;SDS011;64938;47.696;8.066;2023-02-05T12:08:48;3.77;;;3.20;;
76176;SDS011;64938;47.696;8.066;2023-02-05T12:14:00;3.70;;;2.90;;
76176;SDS011;64938;47.696;8.066;2023-02-05T12:19:21;3.73;;;2.70;;
76176;SDS011;64938;47.696;8.066;2023-02-05T12:27:29;1.50;;;1.40;;
76176;SDS011;64938;47.696;8.066;2023-02-05T12:38:14;2.00;;;1.80;;
76176;SDS011;64938;47.696;8.066;2023-02-05T12:49:19;1.93;;;1.67;;
76176;SDS011;64938;47.696;8.066;2023-02-05T12:52:01;2.33;;;1.30;;
76176;SDS011;64938;47.696;8.066;2023-02-05T12:54:46;2.23;;;1.80;;
76176;SDS011;64938;47.696;8.066;2023-02-05T12:57:27;1.97;;;1.70;;
76176;SDS011;64938;47.696;8.066;2023-02-05T13:00:22;1.37;;;1.27;;
76176;SDS011;64938;47.696;8.066;2023-02-05T13:03:02;2.03;;;1.70;;
76176;SDS011;64938;47.696;8.066;2023-02-05T13:05:39;2.47;;;1.40;;
76176;SDS011;64938;47.696;8.066;2023-02-05T13:11:45;2.00;;;1.30;;
76176;SDS011;64938;47.696;8.066;2023-02-05T13:14:03;1.73;;;1.60;;
76176;SDS011;64938;47.696;8.066;2023-02-05T13:16:37;2.23;;;1.77;;
76176;SDS011;64938;47.696;8.066;2023-02-05T13:19:45;2.13;;;1.70;;
76176;SDS011;64938;47.696;8.066;2023-02-05T13:22:37;1.40;;;1.30;;
76176;SDS011;64938;47.696;8.066;2023-02-05T13:25:27;1.80;;;1.70;;
76176;SDS011;64938;47.696;8.066;2023-02-05T13:31:08;1.83;;;1.73;;
76176;SDS011;64938;47.696;8.066;2023-02-05T13:33:46;1.70;;;1.60;;
76176;SDS011;64938;47.696;8.066;2023-02-05T13:44:53;3.23;;;2.23;;
76176;SDS011;64938;47.696;8.066;2023-02-05T13:47:41;4.20;;;2.47;;
76176;SDS011;64938;47.696;8.066;2023-02-05T13:55:51;2.40;;;2.00;;
76176;SDS011;64938;47.696;8.066;2023-02-05T14:01:28;2.53;;;2.33;;
76176;SDS011;64938;47.696;8.066;2023-02-05T14:06:57;4.33;;;2.10;;
76176;SDS011;64938;47.696;8.066;2023-02-05T14:09:32;2.40;;;2.20;;
76176;SDS011;64938;47.696;8.066;2023-02-05T14:11:59;2.43;;;2.23;;
76176;SDS011;64938;47.696;8.066;2023-02-05T14:16:53;3.07;;;2.63;;
76176;SDS011;64938;47.696;8.066;2023-02-05T14:19:22;2.60;;;2.00;;
76176;SDS011;64938;47.696;8.066;2023-02-05T14:22:03;3.47;;;2.33;;
76176;SDS011;64938;47.696;8.066;2023-02-05T14:24:42;3.67;;;3.23;;
76176;SDS011;64938;47.696;8.066;2023-02-05T14:33:02;2.70;;;2.50;;
76176;SDS011;64938;47.696;8.066;2023-02-05T14:35:50;2.47;;;2.27;;
76176;SDS011;64938;47.696;8.066;2023-02-05T14:38:31;2.60;;;2.40;;
76176;SDS011;64938;47.696;8.066;2023-02-05T14:41:14;3.00;;;2.40;;
76176;SDS011;64938;47.696;8.066;2023-02-05T14:43:55;2.80;;;2.40;;
76176;SDS011;64938;47.696;8.066;2023-02-05T14:47:27;2.70;;;2.50;;
76176;SDS011;64938;47.696;8.066;2023-02-05T14:49:25;2.10;;;1.87;;
76176;SDS011;64938;47.696;8.066;2023-02-05T14:51:55;2.03;;;1.90;;
76176;SDS011;64938;47.696;8.066;2023-02-05T14:54:47;1.70;;;1.60;;
76176;SDS011;64938;47.696;8.066;2023-02-05T14:57:19;1.60;;;1.50;;
76176;SDS011;64938;47.696;8.066;2023-02-05T14:59:51;1.57;;;1.47;;
76176;SDS011;64938;47.696;8.066;2023-02-05T15:05:17;1.80;;;1.70;;
76176;SDS011;64938;47.696;8.066;2023-02-05T15:07:46;1.90;;;1.53;;
76176;SDS011;64938;47.696;8.066;2023-02-05T15:10:13;1.60;;;1.50;;
76176;SDS011;64938;47.696;8.066;2023-02-05T15:12:52;1.60;;;1.50;;
76176;SDS011;64938;47.696;8.066;2023-02-05T15:15:31;1.77;;;1.27;;
76176;SDS011;64938;47.696;8.066;2023-02-05T15:18:41;1.53;;;1.43;;
76176;SDS011;64938;47.696;8.066;2023-02-05T15:20:49;1.80;;;1.70;;
76176;SDS011;64938;47.696;8.066;2023-02-05T15:23:19;1.57;;;1.47;;
76176;SDS011;64938;47.696;8.066;2023-02-05T15:25:52;1.50;;;1.40;;
76176;SDS011;64938;47.696;8.066;2023-02-05T15:28:45;1.40;;;1.30;;
76176;SDS011;64938;47.696;8.066;2023-02-05T15:31:24;1.30;;;1.10;;
76176;SDS011;64938;47.696;8.066;2023-02-05T15:37:05;1.33;;;1.23;;
76176;SDS011;64938;47.696;8.066;2023-02-05T15:42:05;1.20;;;1.10;;
76176;SDS011;64938;47.696;8.066;2023-02-05T15:44:33;0.80;;;0.80;;
76176;SDS011;64938;47.696;8.066;2023-02-05T15:47:06;1.20;;;1.10;;
76176;SDS011;64938;47.696;8.066;2023-02-05T15:49:45;0.80;;;0.80;;
76176;SDS011;64938;47.696;8.066;2023-02-05T15:52:20;0.70;;;0.70;;
76176;SDS011;64938;47.696;8.066;2023-02-05T15:54:52;0.70;;;0.70;;
76176;SDS011;64938;47.696;8.066;2023-02-05T15:57:30;0.60;;;0.60;;
76176;SDS011;64938;47.696;8.066;2023-02-05T15:59:58;0.80;;;0.80;;
76176;SDS011;64938;47.696;8.066;2023-02-05T16:02:26;0.73;;;0.70;;
76176;SDS011;64938;47.696;8.066;2023-02-05T16:04:54;0.77;;;0.60;;
76176;SDS011;64938;47.696;8.066;2023-02-05T16:07:29;0.70;;;0.60;;
76176;SDS011;64938;47.696;8.066;2023-02-05T16:10:14;0.70;;;0.70;;
76176;SDS011;64938;47.696;8.066;2023-02-05T16:15:24;1.30;;;1.07;;
76176;SDS011;64938;47.696;8.066;2023-02-05T16:17:56;1.00;;;0.60;;
76176;SDS011;64938;47.696;8.066;2023-02-05T16:20:34;0.60;;;0.50;;
76176;SDS011;64938;47.696;8.066;2023-02-05T16:23:09;0.83;;;0.53;;
76176;SDS011;64938;47.696;8.066;2023-02-05T16:28:14;0.60;;;0.60;;
76176;SDS011;64938;47.696;8.066;2023-02-05T16:30:43;0.60;;;0.57;;
76176;SDS011;64938;47.696;8.066;2023-02-05T16:33:17;0.77;;;0.70;;
76176;SDS011;64938;47.696;8.066;2023-02-05T16:35:58;0.80;;;0.60;;
76176;SDS011;64938;47.696;8.066;2023-02-05T16:38:26;0.70;;;0.67;;
76176;SDS011;64938;47.696;8.066;2023-02-05T16:41:00;0.60;;;0.60;;
76176;SDS011;64938;47.696;8.066;2023-02-05T16:43:47;0.60;;;0.50;;
76176;SDS011;64938;47.696;8.066;2023-02-05T16:46:27;1.30;;;1.20;;
76176;SDS011;64938;47.696;8.066;2023-02-05T16:48:58;1.47;;;1.17;;
76176;SDS011;64938;47.696;8.066;2023-02-05T16:56:38;0.90;;;0.80;;
76176;SDS011;64938;47.696;8.066;2023-02-05T16:59:15;1.70;;;0.90;;
76176;SDS011;64938;47.696;8.066;2023-02-05T17:01:48;0.90;;;0.80;;
76176;SDS011;64938;47.696;8.066;2023-02-05T17:04:34;1.33;;;1.23;;
76176;SDS011;64938;47.696;8.066;2023-02-05T17:07:03;1.47;;;1.00;;
76176;SDS011;64938;47.696;8.066;2023-02-05T17:09:34;1.30;;;1.20;;
76176;SDS011;64938;47.696;8.066;2023-02-05T17:14:54;2.63;;;2.30;;
76176;SDS011;64938;47.696;8.066;2023-02-05T17:17:22;2.20;;;1.90;;
76176;SDS011;64938;47.696;8.066;2023-02-05T17:22:39;2.50;;;1.50;;
76176;SDS011;64938;47.696;8.066;2023-02-05T17:25:34;2.03;;;1.57;;
76176;SDS011;64938;47.696;8.066;2023-02-05T17:28:21;3.30;;;1.83;;
76176;SDS011;64938;47.696;8.066;2023-02-05T17:30:53;3.07;;;2.37;;
76176;SDS011;64938;47.696;8.066;2023-02-05T17:33:23;3.30;;;2.33;;
76176;SDS011;64938;47.696;8.066;2023-02-05T17:35:50;2.50;;;1.80;;
76176;SDS011;64938;47.696;8.066;2023-02-05T17:38:15;3.07;;;2.13;;
76176;SDS011;64938;47.696;8.066;2023-02-05T17:40:44;2.83;;;2.27;;
76176;SDS011;64938;47.696;8.066;2023-02-05T17:43:10;4.17;;;2.87;;
76176;SDS011;64938;47.696;8.066;2023-02-05T17:45:38;1.50;;;1.23;;
76176;SDS011;64938;47.696;8.066;2023-02-05T17:48:05;2.10;;;2.00;;